Terminal Aerodrome Forecast
Issued by NWS Tampa Bay Area, FL

Home | Current Version | Previous Version | Text Only | Print | Product List | Glossary On
Versions: 1 2 3 4 5 6 7 8 9 10 11 12 13 14 15 16 17 18 19 20 21 22 23 24 25 26 27
000
FTUS42 KTBW 291500 AAD
TAFTPA
TAF AMD
KTPA 291521Z 2915/3012 28013KT P6SM VCTS SCT030CB BKN100
      TEMPO 2915/2917 VRB15G25KT 4SM SHRA BKN030
     FM292200 26010KT P6SM SCT030 BKN100 BKN250
     FM300100 25008KT P6SM SCT025 SCT100 BKN250=

USA.gov is the U.S. government's official web portal to all federal, state and local government web resources and services.